sensor_id;sensor_type;location;lat;lon;timestamp;temperature;humidity
56300;DHT22;42209;6.376;-10.782;2022-11-13T00:00:18;23.80;59.80
56300;DHT22;42209;6.376;-10.782;2022-11-13T00:03:04;23.60;57.70
56300;DHT22;42209;6.376;-10.782;2022-11-13T00:05:59;23.60;61.60
56300;DHT22;42209;6.376;-10.782;2022-11-13T00:08:46;23.80;63.90
56300;DHT22;42209;6.376;-10.782;2022-11-13T00:11:33;23.80;65.00
56300;DHT22;42209;6.376;-10.782;2022-11-13T00:14:19;23.90;67.20
56300;DHT22;42209;6.376;-10.782;2022-11-13T00:17:06;23.80;64.00
56300;DHT22;42209;6.376;-10.782;2022-11-13T00:19:52;23.60;60.60
56300;DHT22;42209;6.376;-10.782;2022-11-13T00:22:39;23.50;58.10
56300;DHT22;42209;6.376;-10.782;2022-11-13T00:25:25;23.40;56.90
56300;DHT22;42209;6.376;-10.782;2022-11-13T00:28:12;23.40;56.20
56300;DHT22;42209;6.376;-10.782;2022-11-13T00:31:00;23.40;55.70
56300;DHT22;42209;6.376;-10.782;2022-11-13T00:33:46;23.40;55.90
56300;DHT22;42209;6.376;-10.782;2022-11-13T00:36:53;23.40;55.10
56300;DHT22;42209;6.376;-10.782;2022-11-13T00:39:40;23.40;54.10
56300;DHT22;42209;6.376;-10.782;2022-11-13T00:42:26;23.40;53.70
56300;DHT22;42209;6.376;-10.782;2022-11-13T00:45:12;23.40;55.40
56300;DHT22;42209;6.376;-10.782;2022-11-13T00:47:59;23.60;58.60
56300;DHT22;42209;6.376;-10.782;2022-11-13T00:50:46;23.70;61.40
56300;DHT22;42209;6.376;-10.782;2022-11-13T00:53:32;23.70;63.50
56300;DHT22;42209;6.376;-10.782;2022-11-13T00:56:19;23.80;65.40
56300;DHT22;42209;6.376;-10.782;2022-11-13T00:59:05;23.80;66.60
56300;DHT22;42209;6.376;-10.782;2022-11-13T01:01:52;23.90;67.10
56300;DHT22;42209;6.376;-10.782;2022-11-13T01:04:39;23.80;61.50
56300;DHT22;42209;6.376;-10.782;2022-11-13T01:07:25;23.60;58.40
56300;DHT22;42209;6.376;-10.782;2022-11-13T01:10:12;23.50;59.30
56300;DHT22;42209;6.376;-10.782;2022-11-13T01:12:58;23.70;62.80
56300;DHT22;42209;6.376;-10.782;2022-11-13T01:15:44;23.80;64.90
56300;DHT22;42209;6.376;-10.782;2022-11-13T01:18:31;23.90;67.00
56300;DHT22;42209;6.376;-10.782;2022-11-13T01:21:21;23.90;68.40
56300;DHT22;42209;6.376;-10.782;2022-11-13T01:24:07;23.90;69.10
56300;DHT22;42209;6.376;-10.782;2022-11-13T01:26:54;23.90;64.50
56300;DHT22;42209;6.376;-10.782;2022-11-13T01:29:41;23.80;61.20
56300;DHT22;42209;6.376;-10.782;2022-11-13T01:32:27;23.60;58.80
56300;DHT22;42209;6.376;-10.782;2022-11-13T01:35:14;23.50;57.70
56300;DHT22;42209;6.376;-10.782;2022-11-13T01:38:00;23.50;56.90
56300;DHT22;42209;6.376;-10.782;2022-11-13T01:40:47;23.40;55.90
56300;DHT22;42209;6.376;-10.782;2022-11-13T01:43:37;23.30;54.90
56300;DHT22;42209;6.376;-10.782;2022-11-13T01:46:52;23.20;53.90
56300;DHT22;42209;6.376;-10.782;2022-11-13T01:49:40;23.20;54.50
56300;DHT22;42209;6.376;-10.782;2022-11-13T01:52:37;23.30;54.70
56300;DHT22;42209;6.376;-10.782;2022-11-13T01:55:25;23.40;55.00
56300;DHT22;42209;6.376;-10.782;2022-11-13T01:58:12;23.50;58.50
56300;DHT22;42209;6.376;-10.782;2022-11-13T02:00:59;23.60;60.70
56300;DHT22;42209;6.376;-10.782;2022-11-13T02:03:45;23.60;63.20
56300;DHT22;42209;6.376;-10.782;2022-11-13T02:06:41;23.70;64.20
56300;DHT22;42209;6.376;-10.782;2022-11-13T02:12:51;23.80;64.00
56300;DHT22;42209;6.376;-10.782;2022-11-13T02:15:38;23.60;58.90
56300;DHT22;42209;6.376;-10.782;2022-11-13T02:18:26;23.40;58.00
56300;DHT22;42209;6.376;-10.782;2022-11-13T02:21:49;23.50;62.10
56300;DHT22;42209;6.376;-10.782;2022-11-13T02:24:40;23.70;64.10
56300;DHT22;42209;6.376;-10.782;2022-11-13T02:27:48;23.80;66.80
56300;DHT22;42209;6.376;-10.782;2022-11-13T02:30:36;23.80;68.40
56300;DHT22;42209;6.376;-10.782;2022-11-13T02:33:30;23.90;69.00
56300;DHT22;42209;6.376;-10.782;2022-11-13T02:36:20;23.90;66.30
56300;DHT22;42209;6.376;-10.782;2022-11-13T02:39:11;23.80;61.60
56300;DHT22;42209;6.376;-10.782;2022-11-13T02:41:58;23.60;58.60
56300;DHT22;42209;6.376;-10.782;2022-11-13T02:44:44;23.40;57.10
56300;DHT22;42209;6.376;-10.782;2022-11-13T02:47:31;23.20;56.30
56300;DHT22;42209;6.376;-10.782;2022-11-13T02:50:17;23.20;56.30
56300;DHT22;42209;6.376;-10.782;2022-11-13T02:53:04;23.10;55.90
56300;DHT22;42209;6.376;-10.782;2022-11-13T02:55:51;23.10;55.40
56300;DHT22;42209;6.376;-10.782;2022-11-13T02:58:37;23.20;55.30
56300;DHT22;42209;6.376;-10.782;2022-11-13T03:01:24;23.20;55.00
56300;DHT22;42209;6.376;-10.782;2022-11-13T03:04:10;23.20;55.20
56300;DHT22;42209;6.376;-10.782;2022-11-13T03:06:57;23.30;54.40
56300;DHT22;42209;6.376;-10.782;2022-11-13T03:09:43;23.30;54.60
56300;DHT22;42209;6.376;-10.782;2022-11-13T03:12:31;23.40;57.40
56300;DHT22;42209;6.376;-10.782;2022-11-13T03:15:17;23.50;59.70
56300;DHT22;42209;6.376;-10.782;2022-11-13T03:18:05;23.60;62.50
56300;DHT22;42209;6.376;-10.782;2022-11-13T03:20:52;23.60;64.80
56300;DHT22;42209;6.376;-10.782;2022-11-13T03:23:40;23.60;66.30
56300;DHT22;42209;6.376;-10.782;2022-11-13T03:26:26;23.70;67.40
56300;DHT22;42209;6.376;-10.782;2022-11-13T03:29:12;23.80;67.80
56300;DHT22;42209;6.376;-10.782;2022-11-13T03:31:59;23.80;63.60
56300;DHT22;42209;6.376;-10.782;2022-11-13T03:34:45;23.60;60.00
56300;DHT22;42209;6.376;-10.782;2022-11-13T03:37:32;23.40;60.00
56300;DHT22;42209;6.376;-10.782;2022-11-13T03:40:18;23.60;64.30
56300;DHT22;42209;6.376;-10.782;2022-11-13T03:43:04;23.70;65.70
56300;DHT22;42209;6.376;-10.782;2022-11-13T03:45:51;23.80;68.10
56300;DHT22;42209;6.376;-10.782;2022-11-13T03:48:38;23.80;69.40
56300;DHT22;42209;6.376;-10.782;2022-11-13T03:51:24;23.80;70.50
56300;DHT22;42209;6.376;-10.782;2022-11-13T03:54:10;23.90;71.10
56300;DHT22;42209;6.376;-10.782;2022-11-13T03:56:57;23.80;64.90
56300;DHT22;42209;6.376;-10.782;2022-11-13T03:59:43;23.60;61.70
56300;DHT22;42209;6.376;-10.782;2022-11-13T04:02:30;23.40;60.20
56300;DHT22;42209;6.376;-10.782;2022-11-13T04:05:17;23.40;58.80
56300;DHT22;42209;6.376;-10.782;2022-11-13T04:08:08;23.30;58.20
56300;DHT22;42209;6.376;-10.782;2022-11-13T04:10:54;23.30;57.00
56300;DHT22;42209;6.376;-10.782;2022-11-13T04:13:41;23.20;56.90
56300;DHT22;42209;6.376;-10.782;2022-11-13T04:16:27;23.20;56.60
56300;DHT22;42209;6.376;-10.782;2022-11-13T04:19:14;23.30;56.30
56300;DHT22;42209;6.376;-10.782;2022-11-13T04:22:00;23.20;55.20
56300;DHT22;42209;6.376;-10.782;2022-11-13T04:24:46;23.30;55.20
56300;DHT22;42209;6.376;-10.782;2022-11-13T04:27:33;23.30;57.50
56300;DHT22;42209;6.376;-10.782;2022-11-13T04:30:20;23.40;60.20
56300;DHT22;42209;6.376;-10.782;2022-11-13T04:33:06;23.50;62.10
56300;DHT22;42209;6.376;-10.782;2022-11-13T04:35:52;23.60;64.80
56300;DHT22;42209;6.376;-10.782;2022-11-13T04:38:39;23.60;66.50
56300;DHT22;42209;6.376;-10.782;2022-11-13T04:41:25;23.70;67.30
56300;DHT22;42209;6.376;-10.782;2022-11-13T04:44:12;23.80;68.30
56300;DHT22;42209;6.376;-10.782;2022-11-13T04:46:58;23.80;63.50
56300;DHT22;42209;6.376;-10.782;2022-11-13T04:49:44;23.50;60.00
56300;DHT22;42209;6.376;-10.782;2022-11-13T04:52:31;23.40;59.60
56300;DHT22;42209;6.376;-10.782;2022-11-13T04:55:18;23.50;63.90
56300;DHT22;42209;6.376;-10.782;2022-11-13T04:58:04;23.60;66.00
56300;DHT22;42209;6.376;-10.782;2022-11-13T05:00:50;23.70;67.20
56300;DHT22;42209;6.376;-10.782;2022-11-13T05:03:37;23.70;69.20
56300;DHT22;42209;6.376;-10.782;2022-11-13T05:06:24;23.70;70.10
56300;DHT22;42209;6.376;-10.782;2022-11-13T05:09:10;23.80;70.90
56300;DHT22;42209;6.376;-10.782;2022-11-13T05:11:57;23.80;65.40
56300;DHT22;42209;6.376;-10.782;2022-11-13T05:14:43;23.60;61.90
56300;DHT22;42209;6.376;-10.782;2022-11-13T05:17:29;23.40;59.20
56300;DHT22;42209;6.376;-10.782;2022-11-13T05:20:16;23.30;58.20
56300;DHT22;42209;6.376;-10.782;2022-11-13T05:23:02;23.10;57.40
56300;DHT22;42209;6.376;-10.782;2022-11-13T05:25:49;23.10;56.90
56300;DHT22;42209;6.376;-10.782;2022-11-13T05:28:36;23.10;56.60
56300;DHT22;42209;6.376;-10.782;2022-11-13T05:31:22;23.00;56.60
56300;DHT22;42209;6.376;-10.782;2022-11-13T05:34:09;23.00;55.90
56300;DHT22;42209;6.376;-10.782;2022-11-13T05:36:55;23.10;55.60
56300;DHT22;42209;6.376;-10.782;2022-11-13T05:39:42;23.10;55.60
56300;DHT22;42209;6.376;-10.782;2022-11-13T05:42:28;23.10;55.90
56300;DHT22;42209;6.376;-10.782;2022-11-13T05:45:14;23.20;55.50
56300;DHT22;42209;6.376;-10.782;2022-11-13T05:48:01;23.30;56.20
56300;DHT22;42209;6.376;-10.782;2022-11-13T05:50:47;23.30;59.40
56300;DHT22;42209;6.376;-10.782;2022-11-13T05:53:34;23.40;62.00
56300;DHT22;42209;6.376;-10.782;2022-11-13T05:56:26;23.40;63.30
56300;DHT22;42209;6.376;-10.782;2022-11-13T05:59:13;23.60;64.90
56300;DHT22;42209;6.376;-10.782;2022-11-13T06:01:59;23.60;66.80
56300;DHT22;42209;6.376;-10.782;2022-11-13T06:04:47;23.60;68.10
56300;DHT22;42209;6.376;-10.782;2022-11-13T06:07:36;23.60;68.90
56300;DHT22;42209;6.376;-10.782;2022-11-13T06:10:22;23.70;69.50
56300;DHT22;42209;6.376;-10.782;2022-11-13T06:13:09;23.80;65.10
56300;DHT22;42209;6.376;-10.782;2022-11-13T06:16:00;23.50;60.90
56300;DHT22;42209;6.376;-10.782;2022-11-13T06:18:48;23.40;60.60
56300;DHT22;42209;6.376;-10.782;2022-11-13T06:21:37;23.40;64.40
56300;DHT22;42209;6.376;-10.782;2022-11-13T06:24:24;23.50;66.60
56300;DHT22;42209;6.376;-10.782;2022-11-13T06:27:10;23.60;67.50
56300;DHT22;42209;6.376;-10.782;2022-11-13T06:29:56;23.70;69.90
56300;DHT22;42209;6.376;-10.782;2022-11-13T06:32:43;23.70;70.70
56300;DHT22;42209;6.376;-10.782;2022-11-13T06:35:30;23.70;71.30
56300;DHT22;42209;6.376;-10.782;2022-11-13T06:38:16;23.80;68.00
56300;DHT22;42209;6.376;-10.782;2022-11-13T06:41:03;23.60;63.90
56300;DHT22;42209;6.376;-10.782;2022-11-13T06:43:49;23.40;61.20
56300;DHT22;42209;6.376;-10.782;2022-11-13T06:46:36;23.30;59.90
56300;DHT22;42209;6.376;-10.782;2022-11-13T06:49:22;23.20;58.80
56300;DHT22;42209;6.376;-10.782;2022-11-13T06:52:09;23.10;57.80
56300;DHT22;42209;6.376;-10.782;2022-11-13T06:54:55;23.10;57.10
56300;DHT22;42209;6.376;-10.782;2022-11-13T06:57:42;23.10;56.40
56300;DHT22;42209;6.376;-10.782;2022-11-13T07:00:28;23.00;55.60
56300;DHT22;42209;6.376;-10.782;2022-11-13T07:03:24;23.00;55.00
56300;DHT22;42209;6.376;-10.782;2022-11-13T07:06:14;23.00;55.30
56300;DHT22;42209;6.376;-10.782;2022-11-13T07:09:01;23.00;55.20
56300;DHT22;42209;6.376;-10.782;2022-11-13T07:11:47;23.10;55.00
56300;DHT22;42209;6.376;-10.782;2022-11-13T07:14:33;23.10;54.50
56300;DHT22;42209;6.376;-10.782;2022-11-13T07:17:19;23.20;57.50
56300;DHT22;42209;6.376;-10.782;2022-11-13T07:20:06;23.20;60.30
56300;DHT22;42209;6.376;-10.782;2022-11-13T07:25:08;23.40;63.30
56300;DHT22;42209;6.376;-10.782;2022-11-13T07:27:54;23.50;64.80
56300;DHT22;42209;6.376;-10.782;2022-11-13T07:30:41;23.60;65.70
56300;DHT22;42209;6.376;-10.782;2022-11-13T07:33:27;23.60;67.20
56300;DHT22;42209;6.376;-10.782;2022-11-13T07:36:14;23.60;67.70
56300;DHT22;42209;6.376;-10.782;2022-11-13T07:39:01;23.60;65.70
56300;DHT22;42209;6.376;-10.782;2022-11-13T07:41:48;23.40;61.60
56300;DHT22;42209;6.376;-10.782;2022-11-13T07:44:34;23.20;59.10
56300;DHT22;42209;6.376;-10.782;2022-11-13T07:47:40;23.20;57.70
56300;DHT22;42209;6.376;-10.782;2022-11-13T07:50:29;23.10;56.70
56300;DHT22;42209;6.376;-10.782;2022-11-13T07:53:17;23.00;55.70
56300;DHT22;42209;6.376;-10.782;2022-11-13T07:56:04;22.90;55.10
56300;DHT22;42209;6.376;-10.782;2022-11-13T07:58:51;22.90;54.80
56300;DHT22;42209;6.376;-10.782;2022-11-13T08:01:37;22.80;54.60
56300;DHT22;42209;6.376;-10.782;2022-11-13T08:04:23;22.90;54.80
56300;DHT22;42209;6.376;-10.782;2022-11-13T08:07:11;22.90;54.40
56300;DHT22;42209;6.376;-10.782;2022-11-13T08:09:58;23.00;54.70
56300;DHT22;42209;6.376;-10.782;2022-11-13T08:12:44;23.10;54.10
56300;DHT22;42209;6.376;-10.782;2022-11-13T08:15:32;23.10;56.60
56300;DHT22;42209;6.376;-10.782;2022-11-13T08:18:18;23.20;59.20
56300;DHT22;42209;6.376;-10.782;2022-11-13T08:21:05;23.30;61.40
56300;DHT22;42209;6.376;-10.782;2022-11-13T08:23:59;23.30;62.90
56300;DHT22;42209;6.376;-10.782;2022-11-13T08:26:45;23.40;65.20
56300;DHT22;42209;6.376;-10.782;2022-11-13T08:29:32;23.40;66.40
56300;DHT22;42209;6.376;-10.782;2022-11-13T08:32:19;23.50;67.20
56300;DHT22;42209;6.376;-10.782;2022-11-13T08:35:06;23.60;67.90
56300;DHT22;42209;6.376;-10.782;2022-11-13T08:37:53;23.60;68.10
56300;DHT22;42209;6.376;-10.782;2022-11-13T08:40:39;23.50;62.20
56300;DHT22;42209;6.376;-10.782;2022-11-13T08:43:26;23.30;59.30
56300;DHT22;42209;6.376;-10.782;2022-11-13T08:46:12;23.30;61.80
56300;DHT22;42209;6.376;-10.782;2022-11-13T08:48:58;23.40;65.60
56300;DHT22;42209;6.376;-10.782;2022-11-13T08:51:45;23.50;67.60
56300;DHT22;42209;6.376;-10.782;2022-11-13T08:54:31;23.50;69.40
56300;DHT22;42209;6.376;-10.782;2022-11-13T08:57:18;23.50;70.60
56300;DHT22;42209;6.376;-10.782;2022-11-13T09:00:05;23.60;71.40
56300;DHT22;42209;6.376;-10.782;2022-11-13T09:02:55;23.70;71.80
56300;DHT22;42209;6.376;-10.782;2022-11-13T09:05:42;23.60;65.90
56300;DHT22;42209;6.376;-10.782;2022-11-13T09:08:29;23.40;63.20
56300;DHT22;42209;6.376;-10.782;2022-11-13T09:11:16;23.30;61.70
56300;DHT22;42209;6.376;-10.782;2022-11-13T09:14:03;23.20;60.70
56300;DHT22;42209;6.376;-10.782;2022-11-13T09:16:50;23.10;59.80
56300;DHT22;42209;6.376;-10.782;2022-11-13T09:19:36;23.20;59.20
56300;DHT22;42209;6.376;-10.782;2022-11-13T09:22:22;23.10;58.30
56300;DHT22;42209;6.376;-10.782;2022-11-13T09:25:09;23.00;58.10
56300;DHT22;42209;6.376;-10.782;2022-11-13T09:27:57;23.00;57.30
56300;DHT22;42209;6.376;-10.782;2022-11-13T09:30:44;22.90;56.00
56300;DHT22;42209;6.376;-10.782;2022-11-13T09:33:31;22.80;55.40
56300;DHT22;42209;6.376;-10.782;2022-11-13T09:36:17;22.80;55.60
56300;DHT22;42209;6.376;-10.782;2022-11-13T09:39:04;22.80;55.80
56300;DHT22;42209;6.376;-10.782;2022-11-13T09:42:00;22.80;55.80
56300;DHT22;42209;6.376;-10.782;2022-11-13T09:44:57;22.90;56.00
56300;DHT22;42209;6.376;-10.782;2022-11-13T09:47:46;22.90;56.40
56300;DHT22;42209;6.376;-10.782;2022-11-13T09:50:33;23.00;55.80
56300;DHT22;42209;6.376;-10.782;2022-11-13T09:53:20;23.00;55.80
56300;DHT22;42209;6.376;-10.782;2022-11-13T09:56:35;23.00;58.60
56300;DHT22;42209;6.376;-10.782;2022-11-13T09:59:46;23.20;61.10
56300;DHT22;42209;6.376;-10.782;2022-11-13T10:05:56;23.40;67.20
56300;DHT22;42209;6.376;-10.782;2022-11-13T10:09:31;23.40;68.30
56300;DHT22;42209;6.376;-10.782;2022-11-13T10:12:08;23.50;70.10
56300;DHT22;42209;6.376;-10.782;2022-11-13T10:15:00;23.60;71.10
56300;DHT22;42209;6.376;-10.782;2022-11-13T10:17:56;23.60;68.10
56300;DHT22;42209;6.376;-10.782;2022-11-13T10:20:56;23.40;63.10
56300;DHT22;42209;6.376;-10.782;2022-11-13T10:23:48;23.30;62.40
56300;DHT22;42209;6.376;-10.782;2022-11-13T10:26:36;23.30;66.30
56300;DHT22;42209;6.376;-10.782;2022-11-13T10:29:23;23.40;69.00
56300;DHT22;42209;6.376;-10.782;2022-11-13T10:32:22;23.60;71.10
56300;DHT22;42209;6.376;-10.782;2022-11-13T10:38:04;23.60;73.90
56300;DHT22;42209;6.376;-10.782;2022-11-13T10:41:14;23.70;73.10
56300;DHT22;42209;6.376;-10.782;2022-11-13T10:44:02;23.50;67.50
56300;DHT22;42209;6.376;-10.782;2022-11-13T10:46:49;23.40;64.20
56300;DHT22;42209;6.376;-10.782;2022-11-13T10:49:36;23.30;63.00
56300;DHT22;42209;6.376;-10.782;2022-11-13T10:52:24;23.30;62.00
56300;DHT22;42209;6.376;-10.782;2022-11-13T10:58:16;23.10;60.60
56300;DHT22;42209;6.376;-10.782;2022-11-13T11:01:22;23.10;59.20
56300;DHT22;42209;6.376;-10.782;2022-11-13T11:04:18;23.00;58.10
56300;DHT22;42209;6.376;-10.782;2022-11-13T11:10:35;23.00;58.10
56300;DHT22;42209;6.376;-10.782;2022-11-13T11:13:23;23.00;57.60
56300;DHT22;42209;6.376;-10.782;2022-11-13T11:16:16;23.00;57.90
56300;DHT22;42209;6.376;-10.782;2022-11-13T11:19:08;23.00;56.90
56300;DHT22;42209;6.376;-10.782;2022-11-13T11:22:21;22.90;56.00
56300;DHT22;42209;6.376;-10.782;2022-11-13T11:25:38;22.90;56.30
56300;DHT22;42209;6.376;-10.782;2022-11-13T11:31:41;23.10;57.20
56300;DHT22;42209;6.376;-10.782;2022-11-13T11:34:37;23.10;57.10
56300;DHT22;42209;6.376;-10.782;2022-11-13T11:40:42;23.20;60.20
56300;DHT22;42209;6.376;-10.782;2022-11-13T11:43:43;23.30;62.50
56300;DHT22;42209;6.376;-10.782;2022-11-13T11:46:30;23.40;65.70
56300;DHT22;42209;6.376;-10.782;2022-11-13T11:49:18;23.50;68.00
56300;DHT22;42209;6.376;-10.782;2022-11-13T11:52:44;23.50;65.90
56300;DHT22;42209;6.376;-10.782;2022-11-13T11:59:00;23.30;61.80
56300;DHT22;42209;6.376;-10.782;2022-11-13T12:10:52;23.60;72.60
56300;DHT22;42209;6.376;-10.782;2022-11-13T12:17:19;23.60;66.50
56300;DHT22;42209;6.376;-10.782;2022-11-13T12:20:37;23.40;63.70
56300;DHT22;42209;6.376;-10.782;2022-11-13T12:30:10;23.20;60.00
56300;DHT22;42209;6.376;-10.782;2022-11-13T12:36:22;23.10;58.00
56300;DHT22;42209;6.376;-10.782;2022-11-13T12:42:34;23.20;57.60
56300;DHT22;42209;6.376;-10.782;2022-11-13T12:48:32;23.10;56.30
56300;DHT22;42209;6.376;-10.782;2022-11-13T12:51:18;23.10;55.50
56300;DHT22;42209;6.376;-10.782;2022-11-13T12:54:08;23.00;55.30
56300;DHT22;42209;6.376;-10.782;2022-11-13T12:57:06;23.00;55.60
56300;DHT22;42209;6.376;-10.782;2022-11-13T13:00:22;23.10;56.30
56300;DHT22;42209;6.376;-10.782;2022-11-13T13:13:23;23.00;54.20
56300;DHT22;42209;6.376;-10.782;2022-11-13T13:15:59;23.00;54.70
56300;DHT22;42209;6.376;-10.782;2022-11-13T13:18:46;23.10;54.30
56300;DHT22;42209;6.376;-10.782;2022-11-13T13:21:42;23.00;53.80
56300;DHT22;42209;6.376;-10.782;2022-11-13T13:24:34;23.00;53.40
56300;DHT22;42209;6.376;-10.782;2022-11-13T13:27:27;23.00;53.40
56300;DHT22;42209;6.376;-10.782;2022-11-13T13:30:16;23.10;54.10
56300;DHT22;42209;6.376;-10.782;2022-11-13T13:36:33;23.20;54.00
56300;DHT22;42209;6.376;-10.782;2022-11-13T13:48:49;23.40;59.70
56300;DHT22;42209;6.376;-10.782;2022-11-13T13:51:41;23.30;57.00
56300;DHT22;42209;6.376;-10.782;2022-11-13T13:54:30;23.30;58.30
56300;DHT22;42209;6.376;-10.782;2022-11-13T13:57:17;23.40;61.60
56300;DHT22;42209;6.376;-10.782;2022-11-13T14:00:10;23.50;64.20
56300;DHT22;42209;6.376;-10.782;2022-11-13T14:02:57;23.40;60.40
56300;DHT22;42209;6.376;-10.782;2022-11-13T14:05:44;23.30;58.00
56300;DHT22;42209;6.376;-10.782;2022-11-13T14:08:30;23.20;57.30
56300;DHT22;42209;6.376;-10.782;2022-11-13T14:11:23;23.20;56.70
56300;DHT22;42209;6.376;-10.782;2022-11-13T14:16:04;23.30;56.40
56300;DHT22;42209;6.376;-10.782;2022-11-13T14:19:02;23.40;58.10
56300;DHT22;42209;6.376;-10.782;2022-11-13T14:21:56;23.60;58.80
56300;DHT22;42209;6.376;-10.782;2022-11-13T14:24:54;23.40;56.30
56300;DHT22;42209;6.376;-10.782;2022-11-13T14:27:41;23.30;55.20
56300;DHT22;42209;6.376;-10.782;2022-11-13T14:30:29;23.20;55.20
56300;DHT22;42209;6.376;-10.782;2022-11-13T14:33:22;23.20;54.60
56300;DHT22;42209;6.376;-10.782;2022-11-13T14:36:09;23.20;54.80
56300;DHT22;42209;6.376;-10.782;2022-11-13T14:38:56;23.30;54.60
56300;DHT22;42209;6.376;-10.782;2022-11-13T14:41:50;23.20;53.90
56300;DHT22;42209;6.376;-10.782;2022-11-13T14:44:38;23.20;53.80
56300;DHT22;42209;6.376;-10.782;2022-11-13T14:47:28;23.20;54.20
56300;DHT22;42209;6.376;-10.782;2022-11-13T14:50:22;23.20;53.80
56300;DHT22;42209;6.376;-10.782;2022-11-13T14:53:09;23.20;54.10
56300;DHT22;42209;6.376;-10.782;2022-11-13T14:55:59;23.30;54.30
56300;DHT22;42209;6.376;-10.782;2022-11-13T14:58:46;23.30;53.90
56300;DHT22;42209;6.376;-10.782;2022-11-13T15:01:32;23.40;54.40
56300;DHT22;42209;6.376;-10.782;2022-11-13T15:04:19;23.50;56.20
56300;DHT22;42209;6.376;-10.782;2022-11-13T15:07:38;23.50;60.00
56300;DHT22;42209;6.376;-10.782;2022-11-13T15:10:27;23.50;56.50
56300;DHT22;42209;6.376;-10.782;2022-11-13T15:13:16;23.40;55.10
56300;DHT22;42209;6.376;-10.782;2022-11-13T15:16:03;23.40;57.80
56300;DHT22;42209;6.376;-10.782;2022-11-13T15:19:02;23.60;61.40
56300;DHT22;42209;6.376;-10.782;2022-11-13T15:21:49;23.70;61.70
56300;DHT22;42209;6.376;-10.782;2022-11-13T15:24:56;23.50;58.10
56300;DHT22;42209;6.376;-10.782;2022-11-13T15:27:43;23.50;56.50
56300;DHT22;42209;6.376;-10.782;2022-11-13T15:30:29;23.40;55.90
56300;DHT22;42209;6.376;-10.782;2022-11-13T15:33:16;23.40;56.20
56300;DHT22;42209;6.376;-10.782;2022-11-13T15:36:02;23.30;55.60
56300;DHT22;42209;6.376;-10.782;2022-11-13T15:38:49;23.30;54.40
56300;DHT22;42209;6.376;-10.782;2022-11-13T15:41:36;23.20;53.70
56300;DHT22;42209;6.376;-10.782;2022-11-13T15:44:22;23.20;53.30
56300;DHT22;42209;6.376;-10.782;2022-11-13T15:47:29;23.30;53.00
56300;DHT22;42209;6.376;-10.782;2022-11-13T15:50:16;23.30;54.20
56300;DHT22;42209;6.376;-10.782;2022-11-13T15:53:02;23.30;54.00
56300;DHT22;42209;6.376;-10.782;2022-11-13T15:55:50;23.40;53.20
56300;DHT22;42209;6.376;-10.782;2022-11-13T15:58:37;23.30;52.30
56300;DHT22;42209;6.376;-10.782;2022-11-13T16:01:23;23.40;52.70
56300;DHT22;42209;6.376;-10.782;2022-11-13T16:04:10;23.40;53.70
56300;DHT22;42209;6.376;-10.782;2022-11-13T16:06:57;23.60;57.10
56300;DHT22;42209;6.376;-10.782;2022-11-13T16:09:44;23.60;57.60
56300;DHT22;42209;6.376;-10.782;2022-11-13T16:12:31;23.60;55.10
56300;DHT22;42209;6.376;-10.782;2022-11-13T16:15:17;23.40;55.20
56300;DHT22;42209;6.376;-10.782;2022-11-13T16:18:03;23.60;59.60
56300;DHT22;42209;6.376;-10.782;2022-11-13T16:20:52;23.70;61.50
56300;DHT22;42209;6.376;-10.782;2022-11-13T16:23:39;23.70;58.60
56300;DHT22;42209;6.376;-10.782;2022-11-13T16:26:25;23.70;56.60
56300;DHT22;42209;6.376;-10.782;2022-11-13T16:29:22;23.60;55.10
56300;DHT22;42209;6.376;-10.782;2022-11-13T16:32:13;23.40;53.70
56300;DHT22;42209;6.376;-10.782;2022-11-13T16:35:00;23.40;53.10
56300;DHT22;42209;6.376;-10.782;2022-11-13T16:37:46;23.40;53.20
56300;DHT22;42209;6.376;-10.782;2022-11-13T16:40:33;23.50;53.50
56300;DHT22;42209;6.376;-10.782;2022-11-13T16:43:19;23.60;54.10
56300;DHT22;42209;6.376;-10.782;2022-11-13T16:46:19;23.70;54.10
56300;DHT22;42209;6.376;-10.782;2022-11-13T16:49:11;23.70;53.70
56300;DHT22;42209;6.376;-10.782;2022-11-13T16:51:58;23.70;54.40
56300;DHT22;42209;6.376;-10.782;2022-11-13T16:54:45;23.70;56.90
56300;DHT22;42209;6.376;-10.782;2022-11-13T16:57:31;23.70;54.60
56300;DHT22;42209;6.376;-10.782;2022-11-13T17:00:18;23.70;54.20
56300;DHT22;42209;6.376;-10.782;2022-11-13T17:03:05;23.80;56.90
56300;DHT22;42209;6.376;-10.782;2022-11-13T17:05:52;23.80;56.10
56300;DHT22;42209;6.376;-10.782;2022-11-13T17:08:38;23.60;54.60
56300;DHT22;42209;6.376;-10.782;2022-11-13T17:11:27;23.50;53.70
56300;DHT22;42209;6.376;-10.782;2022-11-13T17:14:13;23.60;53.90
56300;DHT22;42209;6.376;-10.782;2022-11-13T17:17:00;23.60;53.30
56300;DHT22;42209;6.376;-10.782;2022-11-13T17:19:47;23.60;53.30
56300;DHT22;42209;6.376;-10.782;2022-11-13T17:22:33;23.60;53.80
56300;DHT22;42209;6.376;-10.782;2022-11-13T17:25:19;23.60;53.50
56300;DHT22;42209;6.376;-10.782;2022-11-13T17:28:06;23.60;53.00
56300;DHT22;42209;6.376;-10.782;2022-11-13T17:30:52;23.40;52.20
56300;DHT22;42209;6.376;-10.782;2022-11-13T17:33:43;23.40;52.50
56300;DHT22;42209;6.376;-10.782;2022-11-13T17:36:30;23.40;52.10
56300;DHT22;42209;6.376;-10.782;2022-11-13T17:39:17;23.50;52.80
56300;DHT22;42209;6.376;-10.782;2022-11-13T17:42:04;23.50;52.50
56300;DHT22;42209;6.376;-10.782;2022-11-13T17:44:50;23.50;52.70
56300;DHT22;42209;6.376;-10.782;2022-11-13T17:47:37;23.60;52.30
56300;DHT22;42209;6.376;-10.782;2022-11-13T17:50:23;23.60;52.30
56300;DHT22;42209;6.376;-10.782;2022-11-13T17:53:10;23.70;53.30
56300;DHT22;42209;6.376;-10.782;2022-11-13T17:56:01;23.80;56.70
56300;DHT22;42209;6.376;-10.782;2022-11-13T17:58:49;23.70;54.20
56300;DHT22;42209;6.376;-10.782;2022-11-13T18:01:35;23.60;52.80
56300;DHT22;42209;6.376;-10.782;2022-11-13T18:04:22;23.60;55.70
56300;DHT22;42209;6.376;-10.782;2022-11-13T18:07:08;23.80;58.90
56300;DHT22;42209;6.376;-10.782;2022-11-13T18:09:55;23.80;56.30
56300;DHT22;42209;6.376;-10.782;2022-11-13T18:12:42;23.60;54.20
56300;DHT22;42209;6.376;-10.782;2022-11-13T18:15:29;23.50;53.10
56300;DHT22;42209;6.376;-10.782;2022-11-13T18:18:15;23.40;53.10
56300;DHT22;42209;6.376;-10.782;2022-11-13T18:21:28;23.40;52.90
56300;DHT22;42209;6.376;-10.782;2022-11-13T18:24:17;23.50;53.40
56300;DHT22;42209;6.376;-10.782;2022-11-13T18:27:04;23.60;53.20
56300;DHT22;42209;6.376;-10.782;2022-11-13T18:29:51;23.60;52.70
56300;DHT22;42209;6.376;-10.782;2022-11-13T18:32:38;23.60;53.20
56300;DHT22;42209;6.376;-10.782;2022-11-13T18:35:24;23.70;56.20
56300;DHT22;42209;6.376;-10.782;2022-11-13T18:38:10;23.80;59.20
56300;DHT22;42209;6.376;-10.782;2022-11-13T18:41:05;23.70;55.60
56300;DHT22;42209;6.376;-10.782;2022-11-13T18:43:52;23.60;53.30
56300;DHT22;42209;6.376;-10.782;2022-11-13T18:46:38;23.60;55.90
56300;DHT22;42209;6.376;-10.782;2022-11-13T18:49:25;23.80;59.40
56300;DHT22;42209;6.376;-10.782;2022-11-13T18:52:12;23.90;62.00